Time;durP1;ratioP1;P1;durP2;ratioP2;P2;SDS_P1;SDS_P2;PMS_P1;PMS_P2;Temp;Humidity;BMP_temperature;BMP_pressure;BME280_temperature;BME280_humidity;BME280_pressure;Samples;Min_cycle;Max_cycle;Signal;HPM_P1;HPM_P2
2023/10/12 00:00:24;;;;;;;34.45;31.67;;;;;;;;;;4916936;29;20471;-68
2023/10/12 00:02:52;;;;;;;63.05;58.58;;;;;;;;;;4915981;29;20448;-69
2023/10/12 00:05:20;;;;;;;8.48;2.85;;;;;;;;;;4914840;29;20445;-67
2023/10/12 00:07:54;;;;;;;5.93;3.22;;;;;;;;;;4923703;29;20523;-69
2023/10/12 00:10:22;;;;;;;8.00;3.25;;;;;;;;;;4927075;29;20799;-69
2023/10/12 00:12:50;;;;;;;7.53;3.30;;;;;;;;;;4929539;29;20439;-69
2023/10/12 00:15:25;;;;;;;147.88;135.32;;;;;;;;;;4913155;29;20526;-69
2023/10/12 00:17:59;;;;;;;172.07;157.80;;;;;;;;;;4918537;29;20441;-69
2023/10/12 00:23:09;;;;;;;489.33;445.67;;;;;;;;;;4921651;29;20455;-69
2023/10/12 00:25:45;;;;;;;215.88;197.70;;;;;;;;;;4916232;29;20525;-69
2023/10/12 00:28:15;;;;;;;512.58;464.73;;;;;;;;;;4900724;29;20433;-69
2023/10/12 00:30:42;;;;;;;660.65;599.13;;;;;;;;;;4921070;29;20439;-69
2023/10/12 00:33:10;;;;;;;673.38;609.92;;;;;;;;;;4923586;29;20513;-69
2023/10/12 00:35:37;;;;;;;619.25;562.00;;;;;;;;;;4921133;29;20443;-69
2023/10/12 00:38:17;;;;;;;548.45;496.45;;;;;;;;;;4921946;29;21013;-69
2023/10/12 00:40:51;;;;;;;606.10;550.63;;;;;;;;;;4919645;29;20503;-69
2023/10/12 00:43:20;;;;;;;603.72;548.17;;;;;;;;;;4918288;29;20447;-69
2023/10/12 00:45:49;;;;;;;637.30;577.72;;;;;;;;;;4915709;29;20447;-69
2023/10/12 00:48:19;;;;;;;685.20;618.10;;;;;;;;;;4924837;29;20435;-69
2023/10/12 00:50:48;;;;;;;670.83;608.20;;;;;;;;;;4920663;29;20561;-69
2023/10/12 00:53:31;;;;;;;750.40;622.53;;;;;;;;;;4922216;29;20527;-69
2023/10/12 00:56:01;;;;;;;732.08;628.08;;;;;;;;;;4925844;29;20471;-69
2023/10/12 00:58:31;;;;;;;689.17;621.63;;;;;;;;;;4915079;29;20445;-69
2023/10/12 01:01:03;;;;;;;705.45;632.80;;;;;;;;;;4922641;29;20439;-69
2023/10/12 01:03:31;;;;;;;703.80;627.40;;;;;;;;;;4921299;29;21329;-69
2023/10/12 01:06:34;;;;;;;733.20;636.50;;;;;;;;;;4922539;29;20515;-69
2023/10/12 01:09:03;;;;;;;674.67;611.25;;;;;;;;;;4916187;29;20439;-69
2023/10/12 01:11:36;;;;;;;683.97;616.15;;;;;;;;;;4925994;29;20470;-69
2023/10/12 01:16:54;;;;;;;669.50;607.63;;;;;;;;;;4919978;29;20477;-69
2023/10/12 01:19:22;;;;;;;672.17;610.22;;;;;;;;;;4918662;29;20828;-69
2023/10/12 01:21:51;;;;;;;680.10;611.30;;;;;;;;;;4923889;29;20440;-69
2023/10/12 01:24:18;;;;;;;613.45;557.55;;;;;;;;;;4918897;29;20535;-69
2023/10/12 01:26:49;;;;;;;682.28;616.33;;;;;;;;;;4921304;29;20439;-69
2023/10/12 01:29:20;;;;;;;679.83;614.58;;;;;;;;;;4920187;29;20493;-69
2023/10/12 01:32:09;;;;;;;676.00;608.70;;;;;;;;;;4898968;29;20918;-69
2023/10/12 01:34:39;;;;;;;660.35;599.58;;;;;;;;;;4918744;29;21024;-69
2023/10/12 01:40:15;;;;;;;11.63;9.43;;;;;;;;;;4920082;29;20963;-69
2023/10/12 01:42:50;;;;;;;5.45;3.15;;;;;;;;;;4908812;29;20483;-69
2023/10/12 01:45:19;;;;;;;13.23;12.15;;;;;;;;;;4904080;29;20441;-69
2023/10/12 01:48:05;;;;;;;6.10;3.42;;;;;;;;;;4927647;29;20918;-68
2023/10/12 01:50:37;;;;;;;12.38;4.10;;;;;;;;;;4924378;29;20456;-69
2023/10/12 01:53:22;;;;;;;146.13;134.60;;;;;;;;;;4924903;29;20442;-69
2023/10/12 01:55:51;;;;;;;115.97;108.20;;;;;;;;;;4922769;29;20433;-69
2023/10/12 01:58:20;;;;;;;224.00;205.98;;;;;;;;;;4922289;29;20447;-69
2023/10/12 02:00:53;;;;;;;276.05;252.65;;;;;;;;;;4931369;29;20546;-69
2023/10/12 02:03:31;;;;;;;73.97;68.65;;;;;;;;;;4926340;29;20443;-69
2023/10/12 02:06:00;;;;;;;5.22;3.42;;;;;;;;;;4918609;29;20435;-69
2023/10/12 02:08:32;;;;;;;59.03;54.73;;;;;;;;;;4923085;29;20447;-68
2023/10/12 02:11:53;;;;;;;7.83;3.67;;;;;;;;;;4920060;29;20436;-69
2023/10/12 02:13:48;;;;;;;130.23;120.63;;;;;;;;;;4909968;29;20453;-69
2023/10/12 02:16:30;;;;;;;11.77;7.72;;;;;;;;;;4922486;29;20440;-69
2023/10/12 02:18:58;;;;;;;8.48;6.82;;;;;;;;;;4926306;29;20518;-69
2023/10/12 02:21:33;;;;;;;134.65;125.10;;;;;;;;;;4931600;29;20474;-69
2023/10/12 02:26:35;;;;;;;48.90;45.53;;;;;;;;;;4924344;29;20447;-69
2023/10/12 02:31:35;;;;;;;15.40;14.10;;;;;;;;;;4928097;29;20579;-69
2023/10/12 02:34:02;;;;;;;13.98;12.75;;;;;;;;;;4932354;29;20439;-69
2023/10/12 02:36:30;;;;;;;43.20;39.85;;;;;;;;;;4906203;29;20448;-69
2023/10/12 02:39:01;;;;;;;9.02;6.13;;;;;;;;;;4925583;29;20472;-69
2023/10/12 02:41:28;;;;;;;10.50;7.75;;;;;;;;;;4923115;29;20785;-69
2023/10/12 02:44:05;;;;;;;50.65;47.17;;;;;;;;;;4923965;29;20435;-69
2023/10/12 02:46:39;;;;;;;113.90;104.97;;;;;;;;;;4921239;29;20439;-69
2023/10/12 02:49:09;;;;;;;110.65;102.55;;;;;;;;;;4923118;29;20906;-69
2023/10/12 02:51:38;;;;;;;16.08;14.85;;;;;;;;;;4924908;29;20437;-68
2023/10/12 02:54:07;;;;;;;6.88;4.85;;;;;;;;;;4916426;29;20445;-69
2023/10/12 02:56:35;;;;;;;164.25;152.10;;;;;;;;;;4921153;29;20486;-69
2023/10/12 02:59:08;;;;;;;12.40;11.40;;;;;;;;;;4926895;29;20803;-69
2023/10/12 03:01:38;;;;;;;130.13;120.80;;;;;;;;;;4899982;29;20451;-69
2023/10/12 03:04:10;;;;;;;97.88;90.80;;;;;;;;;;4907900;29;20532;-69
2023/10/12 03:06:54;;;;;;;31.67;29.27;;;;;;;;;;4927222;29;20465;-69
2023/10/12 03:09:36;;;;;;;99.72;92.45;;;;;;;;;;4926715;29;20445;-69
2023/10/12 03:12:04;;;;;;;44.50;41.10;;;;;;;;;;4921384;29;20524;-69
2023/10/12 03:14:35;;;;;;;112.38;104.15;;;;;;;;;;4928885;29;20467;-69
2023/10/12 03:17:09;;;;;;;89.18;82.90;;;;;;;;;;4930874;29;20921;-69
2023/10/12 03:19:38;;;;;;;287.15;261.55;;;;;;;;;;4917801;29;20958;-70
2023/10/12 03:24:51;;;;;;;101.78;94.35;;;;;;;;;;4918134;29;20440;-70
2023/10/12 03:27:22;;;;;;;167.47;154.67;;;;;;;;;;4923380;29;21034;-70
2023/10/12 03:30:08;;;;;;;232.45;213.63;;;;;;;;;;4927302;29;20527;-69
2023/10/12 03:32:41;;;;;;;157.85;145.82;;;;;;;;;;4921407;29;20443;-70
2023/10/12 03:35:12;;;;;;;96.15;89.63;;;;;;;;;;4926392;29;20455;-70
2023/10/12 03:37:45;;;;;;;102.60;95.32;;;;;;;;;;4922165;29;20526;-70
2023/10/12 03:43:07;;;;;;;193.85;178.48;;;;;;;;;;4924644;29;20506;-69
2023/10/12 03:45:39;;;;;;;139.02;129.02;;;;;;;;;;4928102;29;20439;-69
2023/10/12 03:48:23;;;;;;;293.33;268.55;;;;;;;;;;4930521;29;20497;-69
2023/10/12 03:51:17;;;;;;;135.40;125.72;;;;;;;;;;4929896;29;20447;-69
2023/10/12 03:53:56;;;;;;;130.25;120.75;;;;;;;;;;4914897;29;20437;-69
2023/10/12 03:56:28;;;;;;;284.10;260.35;;;;;;;;;;4920204;29;20443;-69
2023/10/12 03:59:06;;;;;;;191.68;177.07;;;;;;;;;;4925752;29;20449;-69
2023/10/12 04:01:41;;;;;;;144.15;133.15;;;;;;;;;;4924910;29;20446;-69
2023/10/12 04:04:35;;;;;;;58.63;54.07;;;;;;;;;;4921677;29;20443;-69
2023/10/12 04:09:39;;;;;;;201.13;184.73;;;;;;;;;;4922315;29;20514;-69
2023/10/12 04:12:29;;;;;;;112.63;104.55;;;;;;;;;;4923228;29;20439;-69
2023/10/12 04:15:08;;;;;;;113.72;105.35;;;;;;;;;;4917222;29;20446;-69
2023/10/12 04:17:47;;;;;;;241.88;221.63;;;;;;;;;;4910878;29;20454;-69
2023/10/12 04:20:22;;;;;;;377.47;342.53;;;;;;;;;;4928842;29;20451;-69
2023/10/12 04:23:16;;;;;;;699.42;636.15;;;;;;;;;;4912052;29;20443;-69
2023/10/12 04:25:58;;;;;;;620.28;563.97;;;;;;;;;;4918307;29;20918;-69
2023/10/12 04:28:32;;;;;;;566.80;513.80;;;;;;;;;;4908424;29;20814;-69
2023/10/12 04:34:04;;;;;;;38.55;35.42;;;;;;;;;;4926003;29;20492;-69
2023/10/12 04:36:44;;;;;;;336.10;306.83;;;;;;;;;;4919710;29;20450;-69
2023/10/12 04:52:24;;;;;;;22.52;20.60;;;;;;;;;;4928360;29;20435;-68
2023/10/12 04:55:19;;;;;;;21.08;19.20;;;;;;;;;;4922319;29;20446;-69
2023/10/12 04:57:49;;;;;;;40.63;37.58;;;;;;;;;;4919572;29;20433;-69
2023/10/12 05:00:34;;;;;;;10.07;7.50;;;;;;;;;;4912614;29;20441;-69
2023/10/12 05:06:04;;;;;;;510.73;462.35;;;;;;;;;;4912417;29;20942;-68
2023/10/12 05:08:33;;;;;;;638.87;581.40;;;;;;;;;;4927630;29;20435;-69
2023/10/12 05:11:06;;;;;;;325.50;297.08;;;;;;;;;;4916983;29;20441;-69
2023/10/12 05:13:33;;;;;;;344.23;313.73;;;;;;;;;;4925551;29;20527;-68
2023/10/12 05:16:05;;;;;;;8.57;7.72;;;;;;;;;;4920983;29;20520;-69
2023/10/12 05:18:33;;;;;;;30.97;28.73;;;;;;;;;;4926275;29;20455;-69
2023/10/12 05:21:00;;;;;;;113.05;104.75;;;;;;;;;;4916939;29;20444;-68
2023/10/12 05:23:30;;;;;;;183.13;169.48;;;;;;;;;;4921594;29;20443;-69
2023/10/12 05:28:30;;;;;;;230.93;212.25;;;;;;;;;;4924031;29;20487;-69
2023/10/12 05:36:10;;;;;;;303.85;277.35;;;;;;;;;;4924416;29;20526;-69
2023/10/12 05:38:51;;;;;;;236.18;216.93;;;;;;;;;;4926139;29;20498;-69
2023/10/12 05:44:08;;;;;;;12.05;10.80;;;;;;;;;;4922397;29;20443;-69
2023/10/12 05:46:37;;;;;;;36.05;33.22;;;;;;;;;;4922334;29;20507;-68
2023/10/12 05:49:13;;;;;;;555.70;503.88;;;;;;;;;;4927162;29;20476;-68
2023/10/12 05:51:44;;;;;;;619.05;562.88;;;;;;;;;;4923548;29;20439;-68
2023/10/12 05:54:20;;;;;;;402.38;364.25;;;;;;;;;;4917544;29;20437;-68
2023/10/12 05:56:54;;;;;;;621.93;564.27;;;;;;;;;;4920005;29;20449;-68
2023/10/12 05:59:24;;;;;;;161.23;147.93;;;;;;;;;;4926682;29;21223;-68
2023/10/12 06:01:54;;;;;;;167.57;155.02;;;;;;;;;;4926360;29;21185;-68
2023/10/12 06:04:21;;;;;;;213.90;195.38;;;;;;;;;;4921256;29;20451;-68
2023/10/12 06:06:51;;;;;;;433.02;392.55;;;;;;;;;;4925160;29;20800;-68
2023/10/12 06:09:31;;;;;;;521.83;473.40;;;;;;;;;;4917159;29;20441;-68
2023/10/12 06:11:59;;;;;;;385.58;348.88;;;;;;;;;;4925405;29;20462;-68
2023/10/12 06:14:26;;;;;;;548.78;497.60;;;;;;;;;;4919659;29;20440;-68
2023/10/12 06:16:59;;;;;;;122.53;112.90;;;;;;;;;;4911807;29;20445;-68
2023/10/12 06:19:28;;;;;;;59.20;54.80;;;;;;;;;;4924691;29;20471;-68
2023/10/12 06:21:59;;;;;;;275.60;251.90;;;;;;;;;;4907415;29;20926;-68
2023/10/12 06:24:33;;;;;;;174.57;161.03;;;;;;;;;;4916951;29;20448;-67
2023/10/12 06:27:22;;;;;;;7.17;3.27;;;;;;;;;;4916136;29;20925;-67
2023/10/12 06:29:51;;;;;;;10.38;8.13;;;;;;;;;;4924033;29;20435;-68
2023/10/12 06:32:19;;;;;;;18.15;16.55;;;;;;;;;;4917255;29;20439;-68
2023/10/12 06:51:02;;;;;;;198.60;182.90;;;;;;;;;;4917016;29;20449;-68
2023/10/12 06:53:34;;;;;;;166.57;153.70;;;;;;;;;;4925770;29;20439;-68
2023/10/12 06:56:21;;;;;;;653.60;595.40;;;;;;;;;;4931427;29;20441;-68
2023/10/12 07:04:14;;;;;;;126.05;116.72;;;;;;;;;;4923473;29;20441;-63
2023/10/12 07:07:00;;;;;;;89.68;83.50;;;;;;;;;;4921505;29;20458;-64
2023/10/12 07:09:51;;;;;;;98.33;91.37;;;;;;;;;;4906434;29;20530;-64
2023/10/12 07:12:20;;;;;;;36.95;34.22;;;;;;;;;;4920393;29;20444;-63
2023/10/12 07:14:47;;;;;;;6.43;5.38;;;;;;;;;;4913461;29;21114;-64
2023/10/12 07:17:18;;;;;;;11.63;5.18;;;;;;;;;;4922396;29;20597;-64
2023/10/12 07:19:53;;;;;;;9.05;4.13;;;;;;;;;;4927019;29;20522;-63
2023/10/12 07:22:21;;;;;;;8.68;4.07;;;;;;;;;;4925134;29;20454;-63
2023/10/12 07:24:56;;;;;;;6.27;4.67;;;;;;;;;;4915974;29;20452;-64
2023/10/12 07:27:24;;;;;;;15.07;11.70;;;;;;;;;;4924150;29;20439;-64
2023/10/12 07:31:05;;;;;;;34.13;31.50;;;;;;;;;;4917383;29;20527;-63
2023/10/12 07:32:59;;;;;;;7.80;3.10;;;;;;;;;;4906615;29;20532;-64
2023/10/12 07:35:34;;;;;;;6.60;3.70;;;;;;;;;;4921700;29;20537;-64
2023/10/12 07:38:12;;;;;;;5.35;3.60;;;;;;;;;;4928772;29;20455;-64
2023/10/12 07:40:52;;;;;;;7.22;4.03;;;;;;;;;;4926826;29;20440;-63
2023/10/12 07:43:20;;;;;;;6.63;4.00;;;;;;;;;;4927403;29;20519;-64
2023/10/12 07:45:50;;;;;;;11.30;3.63;;;;;;;;;;4919719;29;20528;-63
2023/10/12 07:48:31;;;;;;;8.93;3.45;;;;;;;;;;4914604;29;20466;-63
2023/10/12 07:53:50;;;;;;;6.10;3.38;;;;;;;;;;4927580;29;21191;-63
2023/10/12 07:56:22;;;;;;;10.13;3.60;;;;;;;;;;4917987;29;20448;-63
2023/10/12 07:58:57;;;;;;;7.45;2.97;;;;;;;;;;4927022;29;20918;-64
2023/10/12 08:03:58;;;;;;;7.28;3.55;;;;;;;;;;4918038;29;20441;-63
2023/10/12 08:09:21;;;;;;;6.30;3.17;;;;;;;;;;4915727;29;20443;-64
2023/10/12 08:11:48;;;;;;;9.52;3.53;;;;;;;;;;4921556;29;20435;-63
2023/10/12 08:19:55;;;;;;;10.85;3.33;;;;;;;;;;4923182;29;20451;-63
2023/10/12 08:22:26;;;;;;;5.47;3.17;;;;;;;;;;4926771;29;20477;-65
2023/10/12 08:24:58;;;;;;;8.23;3.17;;;;;;;;;;4913940;29;20437;-65
2023/10/12 08:27:26;;;;;;;6.60;3.20;;;;;;;;;;4923568;29;20435;-64
2023/10/12 08:37:27;;;;;;;10.43;3.97;;;;;;;;;;4923477;29;20443;-63
2023/10/12 08:45:08;;;;;;;6.25;3.53;;;;;;;;;;4921163;29;20435;-63
2023/10/12 08:52:53;;;;;;;8.27;4.13;;;;;;;;;;4920680;29;20472;-65
2023/10/12 08:55:24;;;;;;;7.00;3.33;;;;;;;;;;4922670;29;20449;-65
2023/10/12 08:58:01;;;;;;;6.28;3.90;;;;;;;;;;4926642;29;20440;-64
2023/10/12 09:03:06;;;;;;;6.53;4.00;;;;;;;;;;4915334;29;20447;-64
2023/10/12 09:05:34;;;;;;;9.20;4.22;;;;;;;;;;4920663;29;20437;-64
2023/10/12 09:13:33;;;;;;;10.07;4.45;;;;;;;;;;4921206;29;20443;-64
2023/10/12 09:16:02;;;;;;;4.82;3.47;;;;;;;;;;4921678;29;20452;-64
2023/10/12 09:18:43;;;;;;;7.60;3.80;;;;;;;;;;4923470;29;20906;-64
2023/10/12 09:23:50;;;;;;;6.10;4.13;;;;;;;;;;4917796;29;20536;-63
2023/10/12 09:36:43;;;;;;;8.50;4.33;;;;;;;;;;4918464;29;20532;-64
2023/10/12 09:39:12;;;;;;;10.35;4.43;;;;;;;;;;4906988;29;20461;-64
2023/10/12 09:41:40;;;;;;;9.35;4.18;;;;;;;;;;4908635;29;20527;-64
2023/10/12 09:44:09;;;;;;;8.90;4.18;;;;;;;;;;4925707;29;20443;-64
2023/10/12 09:46:48;;;;;;;7.35;3.83;;;;;;;;;;4920825;29;20442;-65
2023/10/12 09:49:22;;;;;;;21.65;18.20;;;;;;;;;;4916055;29;20486;-65
2023/10/12 09:51:50;;;;;;;9.98;4.60;;;;;;;;;;4917858;29;21418;-65
2023/10/12 09:54:45;;;;;;;6.97;4.28;;;;;;;;;;4913927;29;20529;-65
2023/10/12 09:57:36;;;;;;;7.53;4.70;;;;;;;;;;4923767;29;20447;-65
2023/10/12 10:00:01;;;;;;;8.10;4.47;;;;;;;;;;4924662;29;20531;-65
2023/10/12 10:02:33;;;;;;;13.43;4.65;;;;;;;;;;4923271;29;20900;-65
2023/10/12 10:05:26;;;;;;;17.45;16.00;;;;;;;;;;4922342;29;20795;-65
2023/10/12 10:07:58;;;;;;;12.90;5.57;;;;;;;;;;4915370;29;20530;-65
2023/10/12 10:10:32;;;;;;;7.78;4.40;;;;;;;;;;4908556;29;20533;-66
2023/10/12 10:13:02;;;;;;;4.80;3.70;;;;;;;;;;4918554;29;20440;-65
2023/10/12 10:15:38;;;;;;;10.05;4.65;;;;;;;;;;4924047;29;20443;-65
2023/10/12 10:18:05;;;;;;;10.10;4.53;;;;;;;;;;4930986;29;20909;-65
2023/10/12 10:20:46;;;;;;;9.53;4.83;;;;;;;;;;4917955;29;20440;-65
2023/10/12 10:23:19;;;;;;;8.15;4.38;;;;;;;;;;4929305;29;20466;-65
2023/10/12 10:26:17;;;;;;;10.75;4.75;;;;;;;;;;4930106;29;20439;-65
2023/10/12 10:28:55;;;;;;;10.98;5.38;;;;;;;;;;4929281;29;20435;-65
2023/10/12 10:31:32;;;;;;;10.85;5.25;;;;;;;;;;4931628;29;20906;-65
2023/10/12 10:34:05;;;;;;;8.30;5.47;;;;;;;;;;4923408;29;20466;-65
2023/10/12 10:36:44;;;;;;;10.48;6.43;;;;;;;;;;4919843;29;20441;-66
2023/10/12 10:44:21;;;;;;;8.20;4.87;;;;;;;;;;4924350;29;20443;-65
2023/10/12 10:47:07;;;;;;;6.80;4.70;;;;;;;;;;4922170;29;20599;-65
2023/10/12 10:49:34;;;;;;;8.77;4.10;;;;;;;;;;4920373;29;20448;-64
2023/10/12 10:52:14;;;;;;;8.30;4.60;;;;;;;;;;4929658;29;20854;-65
2023/10/12 10:54:51;;;;;;;9.52;5.07;;;;;;;;;;4917175;29;20496;-64
2023/10/12 10:57:25;;;;;;;5.95;4.47;;;;;;;;;;4920226;29;21006;-64
2023/10/12 10:59:56;;;;;;;8.30;4.60;;;;;;;;;;4914151;29;21017;-64
2023/10/12 11:02:23;;;;;;;13.73;4.55;;;;;;;;;;4922544;29;20540;-64
2023/10/12 11:04:56;;;;;;;8.40;4.63;;;;;;;;;;4920866;29;20448;-64
2023/10/12 11:07:24;;;;;;;6.22;4.45;;;;;;;;;;4922364;29;20445;-64
2023/10/12 11:12:21;;;;;;;7.35;4.88;;;;;;;;;;4922704;29;20526;-65
2023/10/12 11:14:58;;;;;;;9.90;4.47;;;;;;;;;;4916071;29;20475;-64
2023/10/12 11:17:30;;;;;;;6.60;4.57;;;;;;;;;;4911983;29;20443;-65
2023/10/12 11:19:58;;;;;;;8.90;5.00;;;;;;;;;;4921458;29;20473;-65
2023/10/12 11:22:25;;;;;;;9.52;4.32;;;;;;;;;;4923905;29;20523;-65
2023/10/12 11:24:54;;;;;;;7.43;4.32;;;;;;;;;;4915465;29;20884;-65
2023/10/12 11:27:31;;;;;;;9.75;4.78;;;;;;;;;;4924329;29;20903;-65
2023/10/12 11:30:18;;;;;;;7.28;4.55;;;;;;;;;;4919862;29;20830;-65
2023/10/12 11:32:56;;;;;;;9.80;8.80;;;;;;;;;;4928204;29;21186;-65
2023/10/12 11:35:43;;;;;;;14.65;12.65;;;;;;;;;;4924269;29;20538;-64
2023/10/12 11:38:23;;;;;;;359.63;328.05;;;;;;;;;;4926174;29;20441;-64
2023/10/12 11:41:04;;;;;;;7.85;5.22;;;;;;;;;;4913752;29;20996;-64
2023/10/12 11:43:49;;;;;;;7.10;4.68;;;;;;;;;;4919527;29;20437;-63
2023/10/12 11:46:19;;;;;;;10.30;4.67;;;;;;;;;;4917412;29;20451;-64
2023/10/12 11:49:01;;;;;;;13.70;5.37;;;;;;;;;;4917374;29;20433;-64
2023/10/12 11:51:29;;;;;;;13.35;5.15;;;;;;;;;;4922629;29;20443;-64
2023/10/12 11:53:57;;;;;;;10.83;5.50;;;;;;;;;;4925972;29;20814;-64
2023/10/12 11:56:25;;;;;;;8.40;5.07;;;;;;;;;;4921144;29;20443;-64
2023/10/12 11:58:55;;;;;;;10.50;5.07;;;;;;;;;;4917790;29;20530;-64
2023/10/12 12:01:23;;;;;;;9.45;4.88;;;;;;;;;;4922854;29;20443;-64
2023/10/12 12:03:54;;;;;;;10.13;5.32;;;;;;;;;;4916559;29;20441;-64
2023/10/12 12:06:22;;;;;;;8.35;4.60;;;;;;;;;;4927689;29;20467;-64
2023/10/12 12:08:51;;;;;;;10.25;4.90;;;;;;;;;;4920069;29;20507;-64
2023/10/12 12:11:19;;;;;;;9.60;5.05;;;;;;;;;;4922921;29;21052;-64
2023/10/12 12:13:51;;;;;;;7.57;5.40;;;;;;;;;;4926497;29;20492;-64
2023/10/12 12:16:22;;;;;;;7.60;4.90;;;;;;;;;;4921968;29;20451;-64
2023/10/12 12:18:54;;;;;;;6.60;4.75;;;;;;;;;;4921758;29;20879;-65
2023/10/12 12:21:42;;;;;;;10.65;5.40;;;;;;;;;;4907104;29;20815;-65
2023/10/12 12:24:30;;;;;;;164.88;151.38;;;;;;;;;;4908094;29;20471;-65
2023/10/12 12:26:56;;;;;;;145.10;134.05;;;;;;;;;;4919656;29;20597;-65
2023/10/12 12:29:27;;;;;;;10.80;5.28;;;;;;;;;;4929301;29;20439;-66
2023/10/12 12:32:15;;;;;;;11.93;9.63;;;;;;;;;;4919531;29;20453;-65
2023/10/12 12:34:47;;;;;;;10.60;5.30;;;;;;;;;;4918467;29;20439;-65
2023/10/12 12:37:17;;;;;;;7.97;5.15;;;;;;;;;;4922648;29;20524;-65
2023/10/12 12:39:53;;;;;;;11.13;4.82;;;;;;;;;;4911006;29;20443;-65
2023/10/12 12:42:21;;;;;;;6.07;4.05;;;;;;;;;;4918128;29;20449;-65
2023/10/12 12:44:52;;;;;;;41.47;38.10;;;;;;;;;;4918090;29;20439;-66
2023/10/12 12:47:23;;;;;;;6.57;4.43;;;;;;;;;;4918646;29;20474;-66
2023/10/12 12:49:50;;;;;;;7.95;5.13;;;;;;;;;;4914503;29;20489;-64
2023/10/12 12:52:18;;;;;;;31.23;28.52;;;;;;;;;;4922500;29;20521;-65
2023/10/12 12:54:46;;;;;;;88.00;81.75;;;;;;;;;;4915463;29;20542;-65
2023/10/12 12:57:14;;;;;;;148.35;137.68;;;;;;;;;;4922740;29;20443;-65
2023/10/12 12:59:42;;;;;;;846.63;771.53;;;;;;;;;;4921553;29;20453;-65
2023/10/12 13:02:14;;;;;;;807.28;737.08;;;;;;;;;;4923672;29;20494;-66
2023/10/12 13:04:41;;;;;;;848.97;772.78;;;;;;;;;;4926058;29;20439;-67
2023/10/12 13:07:14;;;;;;;899.05;813.33;;;;;;;;;;4916875;29;20448;-66
2023/10/12 13:09:42;;;;;;;271.95;250.48;;;;;;;;;;4926510;29;20443;-66
2023/10/12 13:12:12;;;;;;;274.48;253.50;;;;;;;;;;4925129;29;20443;-66
2023/10/12 13:14:42;;;;;;;430.23;392.38;;;;;;;;;;4920634;29;20517;-66
2023/10/12 13:17:11;;;;;;;798.45;726.33;;;;;;;;;;4924897;29;20443;-65
2023/10/12 13:19:50;;;;;;;549.40;500.30;;;;;;;;;;4913483;29;20447;-65
2023/10/12 13:22:17;;;;;;;575.83;523.88;;;;;;;;;;4903104;29;21013;-66
2023/10/12 13:24:44;;;;;;;450.88;411.33;;;;;;;;;;4920248;29;20818;-66
2023/10/12 13:27:20;;;;;;;420.48;383.17;;;;;;;;;;4926731;29;20985;-66
2023/10/12 13:29:48;;;;;;;383.20;348.93;;;;;;;;;;4920384;29;20473;-66
2023/10/12 13:32:17;;;;;;;392.92;358.02;;;;;;;;;;4927222;29;20506;-66
2023/10/12 13:34:45;;;;;;;232.03;213.80;;;;;;;;;;4927698;29;20494;-66
2023/10/12 13:37:13;;;;;;;750.78;685.88;;;;;;;;;;4922275;29;20578;-66
2023/10/12 13:39:43;;;;;;;687.85;627.83;;;;;;;;;;4917673;29;20477;-65
2023/10/12 13:42:11;;;;;;;762.65;692.80;;;;;;;;;;4913021;29;20444;-65
2023/10/12 13:44:42;;;;;;;770.33;689.38;;;;;;;;;;4917449;29;20449;-62
2023/10/12 13:47:12;;;;;;;782.27;681.57;;;;;;;;;;4919190;29;20447;-62
2023/10/12 13:49:40;;;;;;;738.25;665.25;;;;;;;;;;4923169;29;20464;-63
2023/10/12 13:52:10;;;;;;;695.15;633.63;;;;;;;;;;4900992;29;20464;-62
2023/10/12 13:54:45;;;;;;;705.40;642.30;;;;;;;;;;4926438;29;20495;-62
2023/10/12 13:57:14;;;;;;;709.00;645.17;;;;;;;;;;4928963;29;21002;-62
2023/10/12 13:59:47;;;;;;;653.38;595.53;;;;;;;;;;4928291;29;20543;-62
2023/10/12 14:02:14;;;;;;;714.20;646.50;;;;;;;;;;4910199;29;20851;-63
2023/10/12 14:04:45;;;;;;;648.57;591.13;;;;;;;;;;4923751;29;20444;-62
2023/10/12 14:07:13;;;;;;;709.70;640.72;;;;;;;;;;4924202;29;20443;-63
2023/10/12 14:09:40;;;;;;;685.85;624.40;;;;;;;;;;4922437;29;20552;-63
2023/10/12 14:12:10;;;;;;;563.15;510.98;;;;;;;;;;4925340;29;20474;-63
2023/10/12 14:14:37;;;;;;;595.00;541.30;;;;;;;;;;4931418;29;20434;-63
2023/10/12 14:17:08;;;;;;;526.67;477.42;;;;;;;;;;4917815;29;20924;-63
2023/10/12 14:19:35;;;;;;;478.23;433.20;;;;;;;;;;4919908;29;20824;-63
2023/10/12 14:22:04;;;;;;;459.08;416.05;;;;;;;;;;4924284;29;20536;-62
2023/10/12 14:24:34;;;;;;;461.48;418.52;;;;;;;;;;4930194;29;20457;-62
2023/10/12 14:27:04;;;;;;;425.35;386.38;;;;;;;;;;4923833;29;20790;-62
2023/10/12 14:29:36;;;;;;;241.05;222.35;;;;;;;;;;4927477;29;20494;-62
2023/10/12 14:32:03;;;;;;;192.57;177.87;;;;;;;;;;4915734;29;20447;-63
2023/10/12 14:34:30;;;;;;;99.68;93.10;;;;;;;;;;4918590;29;20437;-62
2023/10/12 14:37:00;;;;;;;30.77;28.33;;;;;;;;;;4924878;29;20528;-62
2023/10/12 14:39:29;;;;;;;44.42;40.97;;;;;;;;;;4929724;29;20454;-62
2023/10/12 14:41:57;;;;;;;42.47;39.03;;;;;;;;;;4924576;29;20918;-62
2023/10/12 14:44:27;;;;;;;8.63;6.55;;;;;;;;;;4923386;29;20527;-63
2023/10/12 14:46:54;;;;;;;15.87;14.23;;;;;;;;;;4922898;29;20797;-63
2023/10/12 14:49:23;;;;;;;8.80;6.10;;;;;;;;;;4931099;29;20457;-64
2023/10/12 14:51:51;;;;;;;10.02;5.88;;;;;;;;;;4922846;29;20439;-63
2023/10/12 14:54:20;;;;;;;8.43;4.70;;;;;;;;;;4924496;29;20860;-64
2023/10/12 14:56:50;;;;;;;11.07;6.50;;;;;;;;;;4917942;29;20467;-63
2023/10/12 14:59:17;;;;;;;17.65;15.25;;;;;;;;;;4926108;29;20502;-63
2023/10/12 15:01:51;;;;;;;9.38;7.13;;;;;;;;;;4924976;29;20556;-65
2023/10/12 15:04:21;;;;;;;8.60;5.35;;;;;;;;;;4929189;29;20467;-65
2023/10/12 15:06:49;;;;;;;16.52;14.27;;;;;;;;;;4923905;29;20850;-65
2023/10/12 15:09:24;;;;;;;8.30;5.00;;;;;;;;;;4920371;29;20437;-65
2023/10/12 15:11:53;;;;;;;8.13;5.30;;;;;;;;;;4927144;29;20502;-65
2023/10/12 15:14:20;;;;;;;9.25;5.50;;;;;;;;;;4910192;29;20451;-65
2023/10/12 15:16:49;;;;;;;8.68;4.78;;;;;;;;;;4927748;29;20471;-65
2023/10/12 15:19:18;;;;;;;8.93;5.45;;;;;;;;;;4926994;29;20526;-65
2023/10/12 15:21:49;;;;;;;8.15;4.90;;;;;;;;;;4925320;29;20445;-65
2023/10/12 15:24:16;;;;;;;10.95;6.15;;;;;;;;;;4928004;29;20456;-65
2023/10/12 15:26:47;;;;;;;50.33;46.72;;;;;;;;;;4923720;29;20487;-65
2023/10/12 15:29:15;;;;;;;9.55;5.72;;;;;;;;;;4905272;29;20444;-64
2023/10/12 15:31:42;;;;;;;10.77;6.03;;;;;;;;;;4921852;29;20520;-64
2023/10/12 15:34:13;;;;;;;10.30;8.23;;;;;;;;;;4927145;29;20482;-62
2023/10/12 15:36:40;;;;;;;9.00;5.95;;;;;;;;;;4928808;29;20953;-64
2023/10/12 15:39:15;;;;;;;10.83;6.73;;;;;;;;;;4927182;29;20444;-64
2023/10/12 15:41:45;;;;;;;8.35;5.72;;;;;;;;;;4923948;29;20467;-64
2023/10/12 15:44:13;;;;;;;10.43;5.32;;;;;;;;;;4925331;29;20475;-64
2023/10/12 15:46:40;;;;;;;11.05;5.35;;;;;;;;;;4925652;29;20507;-64
2023/10/12 15:49:12;;;;;;;10.70;5.60;;;;;;;;;;4920581;29;20437;-63
2023/10/12 15:51:39;;;;;;;8.27;5.60;;;;;;;;;;4919742;29;20462;-63
2023/10/12 15:54:08;;;;;;;8.63;5.50;;;;;;;;;;4907906;29;20467;-63
2023/10/12 15:56:35;;;;;;;10.73;6.13;;;;;;;;;;4927383;29;20476;-63
2023/10/12 15:59:04;;;;;;;11.70;5.70;;;;;;;;;;4916681;29;20494;-64
2023/10/12 16:01:34;;;;;;;15.48;6.75;;;;;;;;;;4925745;29;21278;-63
2023/10/12 16:04:03;;;;;;;9.80;5.60;;;;;;;;;;4918233;29;20445;-64
2023/10/12 16:06:34;;;;;;;12.32;6.07;;;;;;;;;;4921892;29;20452;-64
2023/10/12 16:09:04;;;;;;;11.85;6.50;;;;;;;;;;4930019;29;20443;-64
2023/10/12 16:11:38;;;;;;;12.50;6.13;;;;;;;;;;4927558;29;20823;-64
2023/10/12 16:14:08;;;;;;;9.98;6.00;;;;;;;;;;4899871;29;20528;-63
2023/10/12 16:16:40;;;;;;;17.63;6.55;;;;;;;;;;4920575;29;22910;-64
2023/10/12 16:19:07;;;;;;;12.40;6.32;;;;;;;;;;4922779;29;20477;-64
2023/10/12 16:21:36;;;;;;;12.40;6.70;;;;;;;;;;4928546;29;20431;-63
2023/10/12 16:24:04;;;;;;;9.90;6.38;;;;;;;;;;4920678;29;20514;-64
2023/10/12 16:26:38;;;;;;;9.38;6.10;;;;;;;;;;4920527;29;20443;-63
2023/10/12 16:29:11;;;;;;;14.55;6.78;;;;;;;;;;4926823;29;20454;-63
2023/10/12 16:31:38;;;;;;;13.48;6.70;;;;;;;;;;4919798;29;20435;-63
2023/10/12 16:34:06;;;;;;;12.25;6.68;;;;;;;;;;4919074;29;20437;-63
2023/10/12 16:36:34;;;;;;;12.93;7.60;;;;;;;;;;4918840;29;20456;-63
2023/10/12 16:39:06;;;;;;;12.60;7.18;;;;;;;;;;4924339;29;20478;-63
2023/10/12 16:41:33;;;;;;;13.05;6.88;;;;;;;;;;4915217;29;20437;-63
2023/10/12 16:44:06;;;;;;;13.38;7.55;;;;;;;;;;4919274;29;20508;-64
2023/10/12 16:46:36;;;;;;;11.40;6.83;;;;;;;;;;4926615;29;20458;-63
2023/10/12 16:49:06;;;;;;;12.47;7.00;;;;;;;;;;4908429;29;20443;-63
2023/10/12 16:51:34;;;;;;;13.55;7.18;;;;;;;;;;4914232;29;20466;-63
2023/10/12 16:54:10;;;;;;;13.75;7.43;;;;;;;;;;4914768;29;20496;-63
2023/10/12 16:56:37;;;;;;;13.43;6.50;;;;;;;;;;4923634;29;20460;-63
2023/10/12 16:59:07;;;;;;;14.18;7.95;;;;;;;;;;4917733;29;20860;-63
2023/10/12 17:01:34;;;;;;;13.43;7.43;;;;;;;;;;4920973;29;20900;-62